sensor_id;sensor_type;location;lat;lon;timestamp;P1;durP1;ratioP1;P2;durP2;ratioP2
35558;SDS011;21661;50.794;-1.066;2023-02-28T00:00:17;5.38;;;1.27;;
35558;SDS011;21661;50.794;-1.066;2023-02-28T00:02:44;4.07;;;1.40;;
35558;SDS011;21661;50.794;-1.066;2023-02-28T00:05:11;3.90;;;1.13;;
35558;SDS011;21661;50.794;-1.066;2023-02-28T00:07:39;6.20;;;1.25;;
35558;SDS011;21661;50.794;-1.066;2023-02-28T00:10:05;7.05;;;1.20;;
35558;SDS011;21661;50.794;-1.066;2023-02-28T00:12:33;2.08;;;0.88;;
35558;SDS011;21661;50.794;-1.066;2023-02-28T00:14:59;3.08;;;0.90;;
35558;SDS011;21661;50.794;-1.066;2023-02-28T00:17:25;5.22;;;1.25;;
35558;SDS011;21661;50.794;-1.066;2023-02-28T00:19:51;4.75;;;1.00;;
35558;SDS011;21661;50.794;-1.066;2023-02-28T00:22:17;3.38;;;0.85;;
35558;SDS011;21661;50.794;-1.066;2023-02-28T00:24:43;5.03;;;1.08;;
35558;SDS011;21661;50.794;-1.066;2023-02-28T00:27:10;5.00;;;1.73;;
35558;SDS011;21661;50.794;-1.066;2023-02-28T00:29:36;3.90;;;1.00;;
35558;SDS011;21661;50.794;-1.066;2023-02-28T00:32:02;3.88;;;1.08;;
35558;SDS011;21661;50.794;-1.066;2023-02-28T00:34:29;3.47;;;1.10;;
35558;SDS011;21661;50.794;-1.066;2023-02-28T00:36:54;3.13;;;1.10;;
35558;SDS011;21661;50.794;-1.066;2023-02-28T00:39:20;4.03;;;1.52;;
35558;SDS011;21661;50.794;-1.066;2023-02-28T00:41:46;4.93;;;1.00;;
35558;SDS011;21661;50.794;-1.066;2023-02-28T00:44:11;8.13;;;1.10;;
35558;SDS011;21661;50.794;-1.066;2023-02-28T00:46:37;5.38;;;1.33;;
35558;SDS011;21661;50.794;-1.066;2023-02-28T00:49:02;4.20;;;1.00;;
35558;SDS011;21661;50.794;-1.066;2023-02-28T00:51:28;5.22;;;1.10;;
35558;SDS011;21661;50.794;-1.066;2023-02-28T00:53:54;2.50;;;1.13;;
35558;SDS011;21661;50.794;-1.066;2023-02-28T00:56:19;6.63;;;1.80;;
35558;SDS011;21661;50.794;-1.066;2023-02-28T00:58:45;4.85;;;1.40;;
35558;SDS011;21661;50.794;-1.066;2023-02-28T01:01:10;4.45;;;1.15;;
35558;SDS011;21661;50.794;-1.066;2023-02-28T01:03:36;8.00;;;1.27;;
35558;SDS011;21661;50.794;-1.066;2023-02-28T01:06:02;5.32;;;1.38;;
35558;SDS011;21661;50.794;-1.066;2023-02-28T01:08:27;4.05;;;1.02;;
35558;SDS011;21661;50.794;-1.066;2023-02-28T01:10:53;4.72;;;1.45;;
35558;SDS011;21661;50.794;-1.066;2023-02-28T01:13:19;4.75;;;1.45;;
35558;SDS011;21661;50.794;-1.066;2023-02-28T01:15:48;4.40;;;1.25;;
35558;SDS011;21661;50.794;-1.066;2023-02-28T01:18:16;8.38;;;1.65;;
35558;SDS011;21661;50.794;-1.066;2023-02-28T01:20:42;3.83;;;1.42;;
35558;SDS011;21661;50.794;-1.066;2023-02-28T01:23:08;4.82;;;1.40;;
35558;SDS011;21661;50.794;-1.066;2023-02-28T01:25:34;7.25;;;1.50;;
35558;SDS011;21661;50.794;-1.066;2023-02-28T01:28:00;4.53;;;1.40;;
35558;SDS011;21661;50.794;-1.066;2023-02-28T01:30:26;3.38;;;1.30;;
35558;SDS011;21661;50.794;-1.066;2023-02-28T01:32:52;3.50;;;1.58;;
35558;SDS011;21661;50.794;-1.066;2023-02-28T01:35:18;4.38;;;1.52;;
35558;SDS011;21661;50.794;-1.066;2023-02-28T01:37:44;3.67;;;1.42;;
35558;SDS011;21661;50.794;-1.066;2023-02-28T01:40:10;3.60;;;1.42;;
35558;SDS011;21661;50.794;-1.066;2023-02-28T01:42:36;4.88;;;1.33;;
35558;SDS011;21661;50.794;-1.066;2023-02-28T01:45:04;5.45;;;1.55;;
35558;SDS011;21661;50.794;-1.066;2023-02-28T01:47:50;5.82;;;1.60;;
35558;SDS011;21661;50.794;-1.066;2023-02-28T01:50:20;3.80;;;1.63;;
35558;SDS011;21661;50.794;-1.066;2023-02-28T01:52:49;6.10;;;1.80;;
35558;SDS011;21661;50.794;-1.066;2023-02-28T01:55:16;5.32;;;1.55;;
35558;SDS011;21661;50.794;-1.066;2023-02-28T01:57:46;8.05;;;1.50;;
35558;SDS011;21661;50.794;-1.066;2023-02-28T02:00:17;4.70;;;1.80;;
35558;SDS011;21661;50.794;-1.066;2023-02-28T02:02:48;3.70;;;1.48;;
35558;SDS011;21661;50.794;-1.066;2023-02-28T02:05:18;6.38;;;1.70;;
35558;SDS011;21661;50.794;-1.066;2023-02-28T02:07:47;4.63;;;1.70;;
35558;SDS011;21661;50.794;-1.066;2023-02-28T02:10:17;5.07;;;2.10;;
35558;SDS011;21661;50.794;-1.066;2023-02-28T02:15:29;5.85;;;1.77;;
35558;SDS011;21661;50.794;-1.066;2023-02-28T02:18:04;5.65;;;2.00;;
35558;SDS011;21661;50.794;-1.066;2023-02-28T02:25:53;4.85;;;1.63;;
35558;SDS011;21661;50.794;-1.066;2023-02-28T02:31:37;4.95;;;1.90;;
35558;SDS011;21661;50.794;-1.066;2023-02-28T02:40:16;6.70;;;1.50;;
35558;SDS011;21661;50.794;-1.066;2023-02-28T02:42:29;6.72;;;1.80;;
35558;SDS011;21661;50.794;-1.066;2023-02-28T02:46:06;5.60;;;2.00;;
35558;SDS011;21661;50.794;-1.066;2023-02-28T02:48:06;6.40;;;2.00;;
35558;SDS011;21661;50.794;-1.066;2023-02-28T02:50:38;5.35;;;1.88;;
35558;SDS011;21661;50.794;-1.066;2023-02-28T02:53:07;4.63;;;1.67;;
35558;SDS011;21661;50.794;-1.066;2023-02-28T02:55:37;7.55;;;1.80;;
35558;SDS011;21661;50.794;-1.066;2023-02-28T02:58:07;6.60;;;1.85;;
35558;SDS011;21661;50.794;-1.066;2023-02-28T03:00:38;8.75;;;2.03;;
35558;SDS011;21661;50.794;-1.066;2023-02-28T03:03:08;5.63;;;1.93;;
35558;SDS011;21661;50.794;-1.066;2023-02-28T03:05:39;7.28;;;2.10;;
35558;SDS011;21661;50.794;-1.066;2023-02-28T03:08:09;8.63;;;2.13;;
35558;SDS011;21661;50.794;-1.066;2023-02-28T03:10:39;6.75;;;2.00;;
35558;SDS011;21661;50.794;-1.066;2023-02-28T03:15:41;11.85;;;2.30;;
35558;SDS011;21661;50.794;-1.066;2023-02-28T03:18:13;7.50;;;2.20;;
35558;SDS011;21661;50.794;-1.066;2023-02-28T03:23:53;5.65;;;2.30;;
35558;SDS011;21661;50.794;-1.066;2023-02-28T03:26:28;8.15;;;2.50;;
35558;SDS011;21661;50.794;-1.066;2023-02-28T03:31:39;5.03;;;2.17;;
35558;SDS011;21661;50.794;-1.066;2023-02-28T03:36:38;11.95;;;3.00;;
35558;SDS011;21661;50.794;-1.066;2023-02-28T03:39:10;10.65;;;3.30;;
35558;SDS011;21661;50.794;-1.066;2023-02-28T03:42:01;7.82;;;3.03;;
35558;SDS011;21661;50.794;-1.066;2023-02-28T03:44:48;11.93;;;2.80;;
35558;SDS011;21661;50.794;-1.066;2023-02-28T03:50:11;8.55;;;2.70;;
35558;SDS011;21661;50.794;-1.066;2023-02-28T03:52:59;10.13;;;2.72;;
35558;SDS011;21661;50.794;-1.066;2023-02-28T03:55:30;7.50;;;2.38;;
35558;SDS011;21661;50.794;-1.066;2023-02-28T04:00:34;9.60;;;2.92;;
35558;SDS011;21661;50.794;-1.066;2023-02-28T04:03:03;8.77;;;2.92;;
35558;SDS011;21661;50.794;-1.066;2023-02-28T04:05:29;7.53;;;2.50;;
35558;SDS011;21661;50.794;-1.066;2023-02-28T04:08:05;5.95;;;2.88;;
35558;SDS011;21661;50.794;-1.066;2023-02-28T04:10:32;12.00;;;2.60;;
35558;SDS011;21661;50.794;-1.066;2023-02-28T04:12:58;11.38;;;2.72;;
35558;SDS011;21661;50.794;-1.066;2023-02-28T04:15:23;8.35;;;2.83;;
35558;SDS011;21661;50.794;-1.066;2023-02-28T04:17:49;7.35;;;2.60;;
35558;SDS011;21661;50.794;-1.066;2023-02-28T04:20:15;7.85;;;2.80;;
35558;SDS011;21661;50.794;-1.066;2023-02-28T04:22:41;7.85;;;2.90;;
35558;SDS011;21661;50.794;-1.066;2023-02-28T04:25:07;9.93;;;3.83;;
35558;SDS011;21661;50.794;-1.066;2023-02-28T04:27:33;15.63;;;3.33;;
35558;SDS011;21661;50.794;-1.066;2023-02-28T04:29:58;9.20;;;4.38;;
35558;SDS011;21661;50.794;-1.066;2023-02-28T04:32:24;8.45;;;3.45;;
35558;SDS011;21661;50.794;-1.066;2023-02-28T04:34:50;10.30;;;3.28;;
35558;SDS011;21661;50.794;-1.066;2023-02-28T04:37:15;12.13;;;3.45;;
35558;SDS011;21661;50.794;-1.066;2023-02-28T04:39:41;10.23;;;3.78;;
35558;SDS011;21661;50.794;-1.066;2023-02-28T04:42:07;9.23;;;3.30;;
35558;SDS011;21661;50.794;-1.066;2023-02-28T04:44:32;7.05;;;3.70;;
35558;SDS011;21661;50.794;-1.066;2023-02-28T04:46:58;8.75;;;3.75;;
35558;SDS011;21661;50.794;-1.066;2023-02-28T04:49:24;9.30;;;3.92;;
35558;SDS011;21661;50.794;-1.066;2023-02-28T04:51:50;9.23;;;3.80;;
35558;SDS011;21661;50.794;-1.066;2023-02-28T04:54:15;12.90;;;3.95;;
35558;SDS011;21661;50.794;-1.066;2023-02-28T04:56:42;7.82;;;3.20;;
35558;SDS011;21661;50.794;-1.066;2023-02-28T04:59:08;10.80;;;5.35;;
35558;SDS011;21661;50.794;-1.066;2023-02-28T05:01:34;10.15;;;3.75;;
35558;SDS011;21661;50.794;-1.066;2023-02-28T05:04:01;10.77;;;3.63;;
35558;SDS011;21661;50.794;-1.066;2023-02-28T05:06:29;17.83;;;3.55;;
35558;SDS011;21661;50.794;-1.066;2023-02-28T05:08:56;11.90;;;3.78;;
35558;SDS011;21661;50.794;-1.066;2023-02-28T05:11:26;13.80;;;3.72;;
35558;SDS011;21661;50.794;-1.066;2023-02-28T05:14:00;13.32;;;4.05;;
35558;SDS011;21661;50.794;-1.066;2023-02-28T05:16:26;11.18;;;4.18;;
35558;SDS011;21661;50.794;-1.066;2023-02-28T05:18:52;11.65;;;3.65;;
35558;SDS011;21661;50.794;-1.066;2023-02-28T05:24:00;11.38;;;3.90;;
35558;SDS011;21661;50.794;-1.066;2023-02-28T05:26:27;12.77;;;3.60;;
35558;SDS011;21661;50.794;-1.066;2023-02-28T05:28:54;9.68;;;4.13;;
35558;SDS011;21661;50.794;-1.066;2023-02-28T05:31:20;8.80;;;3.83;;
35558;SDS011;21661;50.794;-1.066;2023-02-28T05:33:46;13.90;;;3.67;;
35558;SDS011;21661;50.794;-1.066;2023-02-28T05:36:12;9.75;;;3.90;;
35558;SDS011;21661;50.794;-1.066;2023-02-28T05:38:37;14.07;;;4.63;;
35558;SDS011;21661;50.794;-1.066;2023-02-28T05:41:09;12.88;;;4.35;;
35558;SDS011;21661;50.794;-1.066;2023-02-28T05:43:36;13.60;;;5.15;;
35558;SDS011;21661;50.794;-1.066;2023-02-28T05:46:03;10.07;;;4.10;;
35558;SDS011;21661;50.794;-1.066;2023-02-28T05:48:33;11.85;;;4.22;;
35558;SDS011;21661;50.794;-1.066;2023-02-28T05:51:00;10.40;;;4.65;;
35558;SDS011;21661;50.794;-1.066;2023-02-28T05:53:27;18.85;;;5.40;;
35558;SDS011;21661;50.794;-1.066;2023-02-28T05:55:53;16.80;;;4.95;;
35558;SDS011;21661;50.794;-1.066;2023-02-28T05:58:18;18.98;;;4.80;;
35558;SDS011;21661;50.794;-1.066;2023-02-28T06:00:44;16.20;;;4.65;;
35558;SDS011;21661;50.794;-1.066;2023-02-28T06:03:10;14.45;;;5.18;;
35558;SDS011;21661;50.794;-1.066;2023-02-28T06:05:36;10.65;;;4.75;;
35558;SDS011;21661;50.794;-1.066;2023-02-28T06:08:03;10.80;;;4.43;;
35558;SDS011;21661;50.794;-1.066;2023-02-28T06:10:30;15.10;;;4.20;;
35558;SDS011;21661;50.794;-1.066;2023-02-28T06:12:59;11.68;;;3.95;;
35558;SDS011;21661;50.794;-1.066;2023-02-28T06:15:28;12.00;;;4.95;;
35558;SDS011;21661;50.794;-1.066;2023-02-28T06:17:54;10.68;;;4.53;;
35558;SDS011;21661;50.794;-1.066;2023-02-28T06:20:21;10.43;;;4.70;;
35558;SDS011;21661;50.794;-1.066;2023-02-28T06:22:48;11.52;;;4.13;;
35558;SDS011;21661;50.794;-1.066;2023-02-28T06:25:15;15.52;;;4.72;;
35558;SDS011;21661;50.794;-1.066;2023-02-28T06:27:41;11.88;;;4.57;;
35558;SDS011;21661;50.794;-1.066;2023-02-28T06:30:08;13.95;;;4.43;;
35558;SDS011;21661;50.794;-1.066;2023-02-28T06:32:34;12.45;;;4.80;;
35558;SDS011;21661;50.794;-1.066;2023-02-28T06:35:01;16.10;;;4.60;;
35558;SDS011;21661;50.794;-1.066;2023-02-28T06:37:27;12.15;;;4.47;;
35558;SDS011;21661;50.794;-1.066;2023-02-28T06:39:53;15.77;;;4.85;;
35558;SDS011;21661;50.794;-1.066;2023-02-28T06:42:20;12.07;;;4.32;;
35558;SDS011;21661;50.794;-1.066;2023-02-28T06:44:49;10.57;;;4.20;;
35558;SDS011;21661;50.794;-1.066;2023-02-28T06:47:15;14.10;;;4.38;;
35558;SDS011;21661;50.794;-1.066;2023-02-28T06:49:41;13.48;;;4.05;;
35558;SDS011;21661;50.794;-1.066;2023-02-28T06:52:06;8.82;;;4.28;;
35558;SDS011;21661;50.794;-1.066;2023-02-28T06:54:33;11.25;;;4.65;;
35558;SDS011;21661;50.794;-1.066;2023-02-28T06:56:59;16.88;;;4.72;;
35558;SDS011;21661;50.794;-1.066;2023-02-28T06:59:24;13.15;;;4.10;;
35558;SDS011;21661;50.794;-1.066;2023-02-28T07:01:50;12.52;;;3.80;;
35558;SDS011;21661;50.794;-1.066;2023-02-28T07:04:15;11.25;;;3.88;;
35558;SDS011;21661;50.794;-1.066;2023-02-28T07:06:41;10.30;;;3.17;;
35558;SDS011;21661;50.794;-1.066;2023-02-28T07:09:07;10.18;;;4.18;;
35558;SDS011;21661;50.794;-1.066;2023-02-28T07:11:33;10.88;;;5.18;;
35558;SDS011;21661;50.794;-1.066;2023-02-28T07:13:59;11.75;;;4.28;;
35558;SDS011;21661;50.794;-1.066;2023-02-28T07:16:24;10.13;;;3.67;;
35558;SDS011;21661;50.794;-1.066;2023-02-28T07:18:53;9.70;;;3.90;;
35558;SDS011;21661;50.794;-1.066;2023-02-28T07:21:19;10.25;;;4.55;;
35558;SDS011;21661;50.794;-1.066;2023-02-28T07:23:45;10.60;;;4.03;;
35558;SDS011;21661;50.794;-1.066;2023-02-28T07:26:12;11.70;;;4.22;;
35558;SDS011;21661;50.794;-1.066;2023-02-28T07:28:43;9.63;;;3.80;;
35558;SDS011;21661;50.794;-1.066;2023-02-28T07:31:10;13.55;;;3.88;;
35558;SDS011;21661;50.794;-1.066;2023-02-28T07:33:37;8.88;;;4.03;;
35558;SDS011;21661;50.794;-1.066;2023-02-28T07:36:04;11.20;;;4.13;;
35558;SDS011;21661;50.794;-1.066;2023-02-28T07:38:35;8.70;;;3.72;;
35558;SDS011;21661;50.794;-1.066;2023-02-28T07:41:02;10.07;;;3.70;;
35558;SDS011;21661;50.794;-1.066;2023-02-28T07:43:32;9.52;;;3.30;;
35558;SDS011;21661;50.794;-1.066;2023-02-28T07:46:03;9.90;;;3.33;;
35558;SDS011;21661;50.794;-1.066;2023-02-28T07:48:30;7.70;;;3.58;;
35558;SDS011;21661;50.794;-1.066;2023-02-28T07:50:56;7.63;;;3.50;;
35558;SDS011;21661;50.794;-1.066;2023-02-28T07:53:22;14.45;;;4.78;;
35558;SDS011;21661;50.794;-1.066;2023-02-28T07:55:48;16.55;;;3.70;;
35558;SDS011;21661;50.794;-1.066;2023-02-28T07:58:14;6.13;;;3.08;;
35558;SDS011;21661;50.794;-1.066;2023-02-28T08:00:39;7.57;;;3.08;;
35558;SDS011;21661;50.794;-1.066;2023-02-28T08:03:05;8.85;;;2.85;;
35558;SDS011;21661;50.794;-1.066;2023-02-28T08:05:31;9.32;;;3.10;;
35558;SDS011;21661;50.794;-1.066;2023-02-28T08:07:56;9.00;;;2.95;;
35558;SDS011;21661;50.794;-1.066;2023-02-28T08:10:22;10.05;;;2.67;;
35558;SDS011;21661;50.794;-1.066;2023-02-28T08:12:48;7.25;;;2.88;;
35558;SDS011;21661;50.794;-1.066;2023-02-28T08:15:14;7.85;;;2.92;;
35558;SDS011;21661;50.794;-1.066;2023-02-28T08:17:40;10.45;;;2.67;;
35558;SDS011;21661;50.794;-1.066;2023-02-28T08:20:06;11.77;;;2.55;;
35558;SDS011;21661;50.794;-1.066;2023-02-28T08:22:32;9.32;;;2.50;;
35558;SDS011;21661;50.794;-1.066;2023-02-28T08:24:58;8.60;;;2.85;;
35558;SDS011;21661;50.794;-1.066;2023-02-28T08:27:23;6.20;;;3.03;;
35558;SDS011;21661;50.794;-1.066;2023-02-28T08:29:49;7.80;;;2.88;;
35558;SDS011;21661;50.794;-1.066;2023-02-28T08:32:14;5.70;;;2.53;;
35558;SDS011;21661;50.794;-1.066;2023-02-28T08:34:40;8.27;;;2.88;;
35558;SDS011;21661;50.794;-1.066;2023-02-28T08:37:06;7.90;;;2.75;;
35558;SDS011;21661;50.794;-1.066;2023-02-28T08:39:33;17.13;;;3.33;;
35558;SDS011;21661;50.794;-1.066;2023-02-28T08:42:00;10.45;;;3.17;;
35558;SDS011;21661;50.794;-1.066;2023-02-28T08:44:27;8.43;;;3.15;;
35558;SDS011;21661;50.794;-1.066;2023-02-28T08:46:52;12.88;;;3.45;;
35558;SDS011;21661;50.794;-1.066;2023-02-28T08:49:18;10.25;;;3.15;;
35558;SDS011;21661;50.794;-1.066;2023-02-28T08:51:43;11.05;;;3.42;;
35558;SDS011;21661;50.794;-1.066;2023-02-28T08:54:09;8.75;;;3.78;;
35558;SDS011;21661;50.794;-1.066;2023-02-28T08:56:37;8.77;;;3.65;;
35558;SDS011;21661;50.794;-1.066;2023-02-28T08:59:03;8.25;;;2.90;;
35558;SDS011;21661;50.794;-1.066;2023-02-28T09:01:29;9.55;;;3.60;;
35558;SDS011;21661;50.794;-1.066;2023-02-28T09:03:56;9.05;;;3.03;;
35558;SDS011;21661;50.794;-1.066;2023-02-28T09:06:23;8.32;;;2.88;;
35558;SDS011;21661;50.794;-1.066;2023-02-28T09:08:50;6.70;;;2.65;;
35558;SDS011;21661;50.794;-1.066;2023-02-28T09:11:16;11.18;;;3.47;;
35558;SDS011;21661;50.794;-1.066;2023-02-28T09:13:44;8.02;;;3.40;;
35558;SDS011;21661;50.794;-1.066;2023-02-28T09:16:11;11.40;;;3.30;;
35558;SDS011;21661;50.794;-1.066;2023-02-28T09:18:38;8.65;;;3.75;;
35558;SDS011;21661;50.794;-1.066;2023-02-28T09:21:05;7.93;;;3.60;;
35558;SDS011;21661;50.794;-1.066;2023-02-28T09:23:34;10.98;;;3.05;;
35558;SDS011;21661;50.794;-1.066;2023-02-28T09:26:00;8.63;;;2.70;;
35558;SDS011;21661;50.794;-1.066;2023-02-28T09:28:26;9.40;;;2.88;;
35558;SDS011;21661;50.794;-1.066;2023-02-28T09:30:53;5.97;;;2.85;;
35558;SDS011;21661;50.794;-1.066;2023-02-28T09:33:19;7.88;;;2.78;;
35558;SDS011;21661;50.794;-1.066;2023-02-28T09:35:46;8.40;;;3.10;;
35558;SDS011;21661;50.794;-1.066;2023-02-28T09:38:13;6.75;;;3.05;;
35558;SDS011;21661;50.794;-1.066;2023-02-28T09:40:43;7.07;;;2.80;;
35558;SDS011;21661;50.794;-1.066;2023-02-28T09:43:14;7.80;;;2.78;;
35558;SDS011;21661;50.794;-1.066;2023-02-28T09:45:42;7.13;;;3.10;;
35558;SDS011;21661;50.794;-1.066;2023-02-28T09:48:26;6.93;;;2.75;;
35558;SDS011;21661;50.794;-1.066;2023-02-28T09:51:00;9.63;;;3.60;;
35558;SDS011;21661;50.794;-1.066;2023-02-28T09:53:30;7.57;;;3.13;;
35558;SDS011;21661;50.794;-1.066;2023-02-28T09:55:59;7.80;;;2.83;;
35558;SDS011;21661;50.794;-1.066;2023-02-28T09:58:42;9.02;;;3.75;;
35558;SDS011;21661;50.794;-1.066;2023-02-28T10:04:12;7.72;;;3.40;;
35558;SDS011;21661;50.794;-1.066;2023-02-28T10:06:41;6.93;;;3.35;;
35558;SDS011;21661;50.794;-1.066;2023-02-28T10:09:30;8.73;;;3.25;;
35558;SDS011;21661;50.794;-1.066;2023-02-28T10:12:00;7.13;;;3.47;;
35558;SDS011;21661;50.794;-1.066;2023-02-28T10:14:30;8.10;;;3.30;;
35558;SDS011;21661;50.794;-1.066;2023-02-28T10:17:02;8.57;;;3.40;;
35558;SDS011;21661;50.794;-1.066;2023-02-28T10:19:44;6.35;;;3.03;;
35558;SDS011;21661;50.794;-1.066;2023-02-28T10:22:21;6.35;;;2.75;;
35558;SDS011;21661;50.794;-1.066;2023-02-28T10:25:01;4.63;;;2.33;;
35558;SDS011;21661;50.794;-1.066;2023-02-28T10:27:42;7.35;;;2.20;;
35558;SDS011;21661;50.794;-1.066;2023-02-28T10:30:09;4.80;;;2.65;;
35558;SDS011;21661;50.794;-1.066;2023-02-28T10:32:38;5.53;;;2.42;;
35558;SDS011;21661;50.794;-1.066;2023-02-28T10:37:43;7.38;;;2.80;;
35558;SDS011;21661;50.794;-1.066;2023-02-28T10:40:25;9.20;;;3.10;;
35558;SDS011;21661;50.794;-1.066;2023-02-28T10:42:57;9.27;;;2.95;;
35558;SDS011;21661;50.794;-1.066;2023-02-28T10:45:33;7.88;;;2.83;;
35558;SDS011;21661;50.794;-1.066;2023-02-28T10:48:04;5.68;;;2.70;;
35558;SDS011;21661;50.794;-1.066;2023-02-28T10:50:43;5.78;;;2.70;;
35558;SDS011;21661;50.794;-1.066;2023-02-28T10:56:01;8.38;;;3.40;;
35558;SDS011;21661;50.794;-1.066;2023-02-28T10:58:29;7.00;;;3.60;;
35558;SDS011;21661;50.794;-1.066;2023-02-28T11:01:15;5.20;;;2.58;;
35558;SDS011;21661;50.794;-1.066;2023-02-28T11:03:41;9.85;;;3.15;;
35558;SDS011;21661;50.794;-1.066;2023-02-28T11:06:08;7.35;;;3.20;;
35558;SDS011;21661;50.794;-1.066;2023-02-28T11:11:29;9.50;;;4.25;;
35558;SDS011;21661;50.794;-1.066;2023-02-28T11:14:06;6.82;;;3.15;;
35558;SDS011;21661;50.794;-1.066;2023-02-28T11:16:44;10.65;;;2.83;;
35558;SDS011;21661;50.794;-1.066;2023-02-28T11:19:16;8.13;;;2.90;;
35558;SDS011;21661;50.794;-1.066;2023-02-28T11:21:48;7.97;;;3.47;;
35558;SDS011;21661;50.794;-1.066;2023-02-28T11:24:25;7.18;;;2.53;;
35558;SDS011;21661;50.794;-1.066;2023-02-28T11:26:51;6.30;;;2.45;;
35558;SDS011;21661;50.794;-1.066;2023-02-28T11:32:00;3.33;;;1.60;;
35558;SDS011;21661;50.794;-1.066;2023-02-28T11:34:38;4.43;;;1.42;;
35558;SDS011;21661;50.794;-1.066;2023-02-28T11:37:08;2.50;;;1.10;;
35558;SDS011;21661;50.794;-1.066;2023-02-28T11:39:40;3.20;;;1.13;;
35558;SDS011;21661;50.794;-1.066;2023-02-28T11:53:01;2.72;;;1.15;;
35558;SDS011;21661;50.794;-1.066;2023-02-28T11:55:39;4.10;;;1.60;;
35558;SDS011;21661;50.794;-1.066;2023-02-28T12:04:05;3.20;;;1.65;;
35558;SDS011;21661;50.794;-1.066;2023-02-28T12:12:11;5.90;;;2.05;;
35558;SDS011;21661;50.794;-1.066;2023-02-28T12:17:48;4.95;;;1.63;;
35558;SDS011;21661;50.794;-1.066;2023-02-28T12:20:34;3.35;;;1.70;;
35558;SDS011;21661;50.794;-1.066;2023-02-28T12:28:37;5.30;;;2.05;;
35558;SDS011;21661;50.794;-1.066;2023-02-28T12:31:11;4.60;;;1.50;;
35558;SDS011;21661;50.794;-1.066;2023-02-28T12:33:43;3.25;;;1.63;;
35558;SDS011;21661;50.794;-1.066;2023-02-28T12:36:16;4.28;;;1.60;;
35558;SDS011;21661;50.794;-1.066;2023-02-28T12:39:00;5.07;;;1.65;;
35558;SDS011;21661;50.794;-1.066;2023-02-28T12:41:42;4.35;;;2.00;;
35558;SDS011;21661;50.794;-1.066;2023-02-28T12:44:13;7.60;;;2.17;;
35558;SDS011;21661;50.794;-1.066;2023-02-28T12:46:51;4.32;;;2.00;;
35558;SDS011;21661;50.794;-1.066;2023-02-28T12:49:25;5.10;;;2.22;;
35558;SDS011;21661;50.794;-1.066;2023-02-28T12:51:57;5.07;;;1.90;;
35558;SDS011;21661;50.794;-1.066;2023-02-28T12:54:28;3.15;;;1.90;;
35558;SDS011;21661;50.794;-1.066;2023-02-28T12:59:48;4.78;;;2.42;;
35558;SDS011;21661;50.794;-1.066;2023-02-28T13:10:39;6.55;;;3.28;;
35558;SDS011;21661;50.794;-1.066;2023-02-28T13:13:11;5.03;;;2.90;;
35558;SDS011;21661;50.794;-1.066;2023-02-28T13:15:40;6.65;;;3.28;;
35558;SDS011;21661;50.794;-1.066;2023-02-28T13:18:35;8.67;;;3.17;;
35558;SDS011;21661;50.794;-1.066;2023-02-28T13:21:09;7.68;;;3.17;;
35558;SDS011;21661;50.794;-1.066;2023-02-28T13:26:22;5.55;;;2.97;;
35558;SDS011;21661;50.794;-1.066;2023-02-28T13:34:30;5.95;;;2.72;;
35558;SDS011;21661;50.794;-1.066;2023-02-28T13:39:54;5.27;;;2.73;;
35558;SDS011;21661;50.794;-1.066;2023-02-28T13:47:37;5.78;;;2.78;;
35558;SDS011;21661;50.794;-1.066;2023-02-28T13:50:38;4.55;;;2.58;;
35558;SDS011;21661;50.794;-1.066;2023-02-28T14:01:59;6.20;;;2.90;;
35558;SDS011;21661;50.794;-1.066;2023-02-28T14:04:46;7.68;;;2.95;;
35558;SDS011;21661;50.794;-1.066;2023-02-28T14:10:15;4.70;;;2.80;;
35558;SDS011;21661;50.794;-1.066;2023-02-28T14:15:43;5.85;;;3.13;;
35558;SDS011;21661;50.794;-1.066;2023-02-28T14:18:18;6.90;;;2.60;;
35558;SDS011;21661;50.794;-1.066;2023-02-28T14:20:47;7.13;;;3.03;;
35558;SDS011;21661;50.794;-1.066;2023-02-28T14:32:05;5.13;;;2.20;;
35558;SDS011;21661;50.794;-1.066;2023-02-28T14:34:48;4.47;;;2.33;;
35558;SDS011;21661;50.794;-1.066;2023-02-28T14:37:32;8.60;;;2.30;;
35558;SDS011;21661;50.794;-1.066;2023-02-28T14:40:02;5.50;;;2.42;;
35558;SDS011;21661;50.794;-1.066;2023-02-28T14:45:18;5.40;;;2.45;;
35558;SDS011;21661;50.794;-1.066;2023-02-28T14:47:45;6.85;;;2.78;;
35558;SDS011;21661;50.794;-1.066;2023-02-28T14:50:21;5.38;;;2.58;;
35558;SDS011;21661;50.794;-1.066;2023-02-28T14:52:52;5.95;;;2.80;;
35558;SDS011;21661;50.794;-1.066;2023-02-28T14:55:21;4.15;;;2.45;;
35558;SDS011;21661;50.794;-1.066;2023-02-28T14:57:51;3.50;;;1.83;;
35558;SDS011;21661;50.794;-1.066;2023-02-28T15:00:29;3.85;;;2.00;;
35558;SDS011;21661;50.794;-1.066;2023-02-28T15:02:56;5.10;;;2.10;;
35558;SDS011;21661;50.794;-1.066;2023-02-28T15:07:59;6.80;;;2.22;;
35558;SDS011;21661;50.794;-1.066;2023-02-28T15:10:30;3.67;;;1.83;;
35558;SDS011;21661;50.794;-1.066;2023-02-28T15:12:58;4.05;;;1.90;;
35558;SDS011;21661;50.794;-1.066;2023-02-28T15:15:58;4.65;;;2.17;;
35558;SDS011;21661;50.794;-1.066;2023-02-28T15:19:02;4.40;;;2.20;;
35558;SDS011;21661;50.794;-1.066;2023-02-28T15:21:15;4.55;;;1.80;;
35558;SDS011;21661;50.794;-1.066;2023-02-28T15:23:43;5.03;;;1.90;;
35558;SDS011;21661;50.794;-1.066;2023-02-28T15:26:19;5.10;;;2.03;;
35558;SDS011;21661;50.794;-1.066;2023-02-28T15:28:48;5.82;;;2.03;;
35558;SDS011;21661;50.794;-1.066;2023-02-28T15:31:26;5.72;;;1.95;;
35558;SDS011;21661;50.794;-1.066;2023-02-28T15:33:55;3.97;;;1.90;;
35558;SDS011;21661;50.794;-1.066;2023-02-28T15:36:24;13.63;;;2.47;;
35558;SDS011;21661;50.794;-1.066;2023-02-28T15:38:52;4.50;;;2.45;;
35558;SDS011;21661;50.794;-1.066;2023-02-28T15:41:24;5.32;;;2.38;;
35558;SDS011;21661;50.794;-1.066;2023-02-28T15:46:41;4.88;;;2.50;;
35558;SDS011;21661;50.794;-1.066;2023-02-28T15:49:17;4.68;;;2.10;;
35558;SDS011;21661;50.794;-1.066;2023-02-28T15:51:45;5.60;;;2.63;;
35558;SDS011;21661;50.794;-1.066;2023-02-28T15:54:15;7.20;;;2.63;;
35558;SDS011;21661;50.794;-1.066;2023-02-28T15:56:46;6.63;;;3.20;;
35558;SDS011;21661;50.794;-1.066;2023-02-28T15:59:17;7.38;;;3.00;;
35558;SDS011;21661;50.794;-1.066;2023-02-28T16:01:46;7.70;;;3.20;;
35558;SDS011;21661;50.794;-1.066;2023-02-28T16:04:15;5.57;;;2.60;;
35558;SDS011;21661;50.794;-1.066;2023-02-28T16:06:45;5.95;;;2.90;;
35558;SDS011;21661;50.794;-1.066;2023-02-28T16:09:14;6.22;;;3.05;;
35558;SDS011;21661;50.794;-1.066;2023-02-28T16:11:42;8.02;;;3.17;;
35558;SDS011;21661;50.794;-1.066;2023-02-28T16:14:15;8.20;;;3.33;;
35558;SDS011;21661;50.794;-1.066;2023-02-28T16:16:48;9.57;;;4.20;;
35558;SDS011;21661;50.794;-1.066;2023-02-28T16:19:16;9.75;;;4.90;;
35558;SDS011;21661;50.794;-1.066;2023-02-28T16:21:42;13.60;;;6.57;;
35558;SDS011;21661;50.794;-1.066;2023-02-28T16:24:08;10.05;;;5.18;;
35558;SDS011;21661;50.794;-1.066;2023-02-28T16:26:34;11.35;;;4.95;;
35558;SDS011;21661;50.794;-1.066;2023-02-28T16:29:02;14.98;;;6.38;;
35558;SDS011;21661;50.794;-1.066;2023-02-28T16:31:28;11.18;;;6.45;;
35558;SDS011;21661;50.794;-1.066;2023-02-28T16:33:54;8.65;;;4.40;;
35558;SDS011;21661;50.794;-1.066;2023-02-28T16:36:22;8.63;;;4.53;;
35558;SDS011;21661;50.794;-1.066;2023-02-28T16:38:50;8.98;;;5.18;;
35558;SDS011;21661;50.794;-1.066;2023-02-28T16:41:20;7.07;;;4.38;;
35558;SDS011;21661;50.794;-1.066;2023-02-28T16:43:48;13.25;;;7.05;;
35558;SDS011;21661;50.794;-1.066;2023-02-28T16:46:16;12.93;;;4.70;;
35558;SDS011;21661;50.794;-1.066;2023-02-28T16:48:43;11.27;;;5.68;;
35558;SDS011;21661;50.794;-1.066;2023-02-28T16:51:15;9.93;;;4.72;;
35558;SDS011;21661;50.794;-1.066;2023-02-28T16:53:41;5.80;;;3.13;;
35558;SDS011;21661;50.794;-1.066;2023-02-28T16:56:13;7.00;;;4.00;;
35558;SDS011;21661;50.794;-1.066;2023-02-28T16:58:42;6.03;;;3.30;;
35558;SDS011;21661;50.794;-1.066;2023-02-28T17:01:08;6.97;;;3.03;;
35558;SDS011;21661;50.794;-1.066;2023-02-28T17:03:33;11.80;;;5.63;;